sensor_id;sensor_type;location;lat;lon;timestamp;pressure;altitude;pressure_sealevel;temperature;humidity
72892;BME280;61032;50.782;6.818;2023-08-06T00:00:06;99388.72;;;16.36;77.08
72892;BME280;61032;50.782;6.818;2023-08-06T00:01:07;99378.41;;;16.40;76.79
72892;BME280;61032;50.782;6.818;2023-08-06T00:02:07;99376.03;;;16.39;76.90
72892;BME280;61032;50.782;6.818;2023-08-06T00:03:07;99384.75;;;16.34;77.04
72892;BME280;61032;50.782;6.818;2023-08-06T00:04:08;99383.97;;;16.37;77.13
72892;BME280;61032;50.782;6.818;2023-08-06T00:05:08;99379.59;;;16.36;76.96
72892;BME280;61032;50.782;6.818;2023-08-06T00:06:08;99382.78;;;16.34;77.00
72892;BME280;61032;50.782;6.818;2023-08-06T00:07:09;99385.53;;;16.31;77.27
72892;BME280;61032;50.782;6.818;2023-08-06T00:08:09;99383.56;;;16.35;77.13
72892;BME280;61032;50.782;6.818;2023-08-06T00:09:09;99385.53;;;16.34;77.02
72892;BME280;61032;50.782;6.818;2023-08-06T00:10:10;99387.91;;;16.32;77.19
72892;BME280;61032;50.782;6.818;2023-08-06T00:11:10;99389.91;;;16.28;77.37
72892;BME280;61032;50.782;6.818;2023-08-06T00:12:11;99383.16;;;16.29;77.36
72892;BME280;61032;50.782;6.818;2023-08-06T00:13:11;99384.75;;;16.27;77.54
72892;BME280;61032;50.782;6.818;2023-08-06T00:14:12;99388.31;;;16.27;77.39
72892;BME280;61032;50.782;6.818;2023-08-06T00:15:12;99387.13;;;16.28;77.56
72892;BME280;61032;50.782;6.818;2023-08-06T00:16:13;99388.31;;;16.27;77.49
72892;BME280;61032;50.782;6.818;2023-08-06T00:17:13;99393.47;;;16.29;77.54
72892;BME280;61032;50.782;6.818;2023-08-06T00:18:14;99387.91;;;16.29;77.66
72892;BME280;61032;50.782;6.818;2023-08-06T00:19:14;99391.88;;;16.28;77.74
72892;BME280;61032;50.782;6.818;2023-08-06T00:20:14;99387.91;;;16.25;77.76
72892;BME280;61032;50.782;6.818;2023-08-06T00:21:14;99390.69;;;16.29;77.74
72892;BME280;61032;50.782;6.818;2023-08-06T00:22:15;99386.34;;;16.31;77.51
72892;BME280;61032;50.782;6.818;2023-08-06T00:23:15;99393.47;;;16.29;77.66
72892;BME280;61032;50.782;6.818;2023-08-06T00:24:15;99396.63;;;16.27;77.68
72892;BME280;61032;50.782;6.818;2023-08-06T00:25:16;99391.09;;;16.27;77.74
72892;BME280;61032;50.782;6.818;2023-08-06T00:26:16;99389.91;;;16.18;78.10
72892;BME280;61032;50.782;6.818;2023-08-06T00:27:16;99392.28;;;16.19;78.31
72892;BME280;61032;50.782;6.818;2023-08-06T00:28:17;99394.25;;;16.15;78.34
72892;BME280;61032;50.782;6.818;2023-08-06T00:29:17;99388.69;;;16.08;78.69
72892;BME280;61032;50.782;6.818;2023-08-06T00:30:17;99391.84;;;16.06;78.43
72892;BME280;61032;50.782;6.818;2023-08-06T00:31:18;99388.69;;;16.08;78.54
72892;BME280;61032;50.782;6.818;2023-08-06T00:32:18;99391.88;;;16.10;78.75
72892;BME280;61032;50.782;6.818;2023-08-06T00:33:19;99386.72;;;16.08;78.60
72892;BME280;61032;50.782;6.818;2023-08-06T00:34:19;99388.69;;;16.11;78.31
72892;BME280;61032;50.782;6.818;2023-08-06T00:35:19;99389.09;;;16.10;78.21
72892;BME280;61032;50.782;6.818;2023-08-06T00:36:20;99385.53;;;16.09;78.16
72892;BME280;61032;50.782;6.818;2023-08-06T00:37:20;99389.50;;;16.12;78.46
72892;BME280;61032;50.782;6.818;2023-08-06T00:38:20;99394.66;;;16.17;77.97
72892;BME280;61032;50.782;6.818;2023-08-06T00:39:21;99393.06;;;16.16;78.06
72892;BME280;61032;50.782;6.818;2023-08-06T00:40:21;99389.50;;;16.15;77.88
72892;BME280;61032;50.782;6.818;2023-08-06T00:41:22;99391.47;;;16.11;78.09
72892;BME280;61032;50.782;6.818;2023-08-06T00:42:23;99381.56;;;16.14;78.12
72892;BME280;61032;50.782;6.818;2023-08-06T00:43:23;99385.94;;;16.15;77.93
72892;BME280;61032;50.782;6.818;2023-08-06T00:44:24;99383.16;;;16.15;78.03
72892;BME280;61032;50.782;6.818;2023-08-06T00:45:25;99382.38;;;16.14;77.81
72892;BME280;61032;50.782;6.818;2023-08-06T00:46:26;99388.69;;;16.11;77.98
72892;BME280;61032;50.782;6.818;2023-08-06T00:47:26;99383.97;;;16.15;77.97
72892;BME280;61032;50.782;6.818;2023-08-06T00:48:27;99383.16;;;16.15;77.95
72892;BME280;61032;50.782;6.818;2023-08-06T00:49:27;99382.38;;;16.14;78.01
72892;BME280;61032;50.782;6.818;2023-08-06T00:50:28;99373.25;;;16.14;77.99
72892;BME280;61032;50.782;6.818;2023-08-06T00:51:28;99381.97;;;16.16;77.86
72892;BME280;61032;50.782;6.818;2023-08-06T00:52:28;99379.19;;;16.16;77.87
72892;BME280;61032;50.782;6.818;2023-08-06T00:53:29;99385.53;;;16.09;78.01
72892;BME280;61032;50.782;6.818;2023-08-06T00:54:30;99379.97;;;16.06;78.52
72892;BME280;61032;50.782;6.818;2023-08-06T00:55:31;99371.66;;;16.06;78.39
72892;BME280;61032;50.782;6.818;2023-08-06T00:56:34;99381.56;;;16.07;78.26
72892;BME280;61032;50.782;6.818;2023-08-06T00:57:36;99372.84;;;16.08;78.09
72892;BME280;61032;50.782;6.818;2023-08-06T00:58:36;99379.97;;;16.09;78.24
72892;BME280;61032;50.782;6.818;2023-08-06T00:59:37;99383.16;;;16.11;78.12
72892;BME280;61032;50.782;6.818;2023-08-06T01:00:38;99375.63;;;16.12;78.29
72892;BME280;61032;50.782;6.818;2023-08-06T01:01:39;99380.78;;;16.13;78.10
72892;BME280;61032;50.782;6.818;2023-08-06T01:02:39;99379.59;;;16.11;78.04
72892;BME280;61032;50.782;6.818;2023-08-06T01:03:39;99374.84;;;16.15;78.07
72892;BME280;61032;50.782;6.818;2023-08-06T01:04:40;99372.06;;;16.15;78.13
72892;BME280;61032;50.782;6.818;2023-08-06T01:05:40;99369.69;;;16.13;77.71
72892;BME280;61032;50.782;6.818;2023-08-06T01:07:13;99372.06;;;16.15;77.76
72892;BME280;61032;50.782;6.818;2023-08-06T01:08:36;99374.44;;;16.13;77.97
72892;BME280;61032;50.782;6.818;2023-08-06T01:09:59;99365.72;;;16.07;78.25
72892;BME280;61032;50.782;6.818;2023-08-06T01:12:28;99368.88;;;16.06;78.24
72892;BME280;61032;50.782;6.818;2023-08-06T01:15:32;99365.69;;;16.00;78.74
72892;BME280;61032;50.782;6.818;2023-08-06T01:16:35;99368.91;;;15.99;78.68
72892;BME280;61032;50.782;6.818;2023-08-06T01:17:36;99362.16;;;16.00;78.78
72892;BME280;61032;50.782;6.818;2023-08-06T01:18:36;99361.75;;;16.01;78.95
72892;BME280;61032;50.782;6.818;2023-08-06T01:19:39;99366.91;;;15.99;79.11
72892;BME280;61032;50.782;6.818;2023-08-06T01:20:39;99366.91;;;15.99;79.10
72892;BME280;61032;50.782;6.818;2023-08-06T01:21:39;99364.16;;;15.99;79.14
72892;BME280;61032;50.782;6.818;2023-08-06T01:22:40;99361.38;;;15.96;79.00
72892;BME280;61032;50.782;6.818;2023-08-06T01:23:41;99365.72;;;15.93;79.30
72892;BME280;61032;50.782;6.818;2023-08-06T01:24:47;99357.78;;;15.92;79.39
72892;BME280;61032;50.782;6.818;2023-08-06T01:25:49;99369.28;;;15.94;79.40
72892;BME280;61032;50.782;6.818;2023-08-06T01:27:03;99366.91;;;15.96;79.28
72892;BME280;61032;50.782;6.818;2023-08-06T01:28:11;99365.72;;;15.97;79.46
72892;BME280;61032;50.782;6.818;2023-08-06T01:29:23;99370.47;;;15.93;79.53
72892;BME280;61032;50.782;6.818;2023-08-06T01:30:29;99365.69;;;15.90;79.61
72892;BME280;61032;50.782;6.818;2023-08-06T01:31:31;99361.72;;;15.87;79.67
72892;BME280;61032;50.782;6.818;2023-08-06T01:32:38;99360.94;;;15.87;79.84
72892;BME280;61032;50.782;6.818;2023-08-06T01:33:45;99355.81;;;15.89;79.85
72892;BME280;61032;50.782;6.818;2023-08-06T01:34:48;99364.91;;;15.86;80.03
72892;BME280;61032;50.782;6.818;2023-08-06T01:35:50;99363.31;;;15.85;80.01
72892;BME280;61032;50.782;6.818;2023-08-06T01:36:52;99367.66;;;15.86;80.25
72892;BME280;61032;50.782;6.818;2023-08-06T01:37:53;99357.78;;;15.88;79.91
72892;BME280;61032;50.782;6.818;2023-08-06T01:38:53;99351.44;;;15.88;79.90
72892;BME280;61032;50.782;6.818;2023-08-06T01:39:54;99355.41;;;15.87;79.99
72892;BME280;61032;50.782;6.818;2023-08-06T01:40:54;99352.22;;;15.85;80.12
72892;BME280;61032;50.782;6.818;2023-08-06T01:41:55;99352.22;;;15.85;79.93
72892;BME280;61032;50.782;6.818;2023-08-06T01:42:55;99348.66;;;15.84;80.18
72892;BME280;61032;50.782;6.818;2023-08-06T01:43:55;99352.22;;;15.85;80.02
72892;BME280;61032;50.782;6.818;2023-08-06T01:44:56;99351.03;;;15.86;80.10
72892;BME280;61032;50.782;6.818;2023-08-06T01:45:56;99350.66;;;15.87;80.14
72892;BME280;61032;50.782;6.818;2023-08-06T01:46:56;99349.84;;;15.83;79.91
72892;BME280;61032;50.782;6.818;2023-08-06T01:47:57;99341.16;;;15.88;79.80
72892;BME280;61032;50.782;6.818;2023-08-06T01:48:57;99342.72;;;15.89;79.61
72892;BME280;61032;50.782;6.818;2023-08-06T01:49:57;99346.28;;;15.90;79.64
72892;BME280;61032;50.782;6.818;2023-08-06T01:50:58;99340.75;;;15.90;79.54
72892;BME280;61032;50.782;6.818;2023-08-06T01:51:58;99343.53;;;15.90;79.47
72892;BME280;61032;50.782;6.818;2023-08-06T01:52:58;99336.78;;;15.91;79.70
72892;BME280;61032;50.782;6.818;2023-08-06T01:53:59;99339.97;;;15.93;79.47
72892;BME280;61032;50.782;6.818;2023-08-06T01:54:59;99339.19;;;15.96;79.37
72892;BME280;61032;50.782;6.818;2023-08-06T01:55:59;99349.47;;;15.92;79.65
72892;BME280;61032;50.782;6.818;2023-08-06T01:57:00;99336.81;;;15.94;79.52
72892;BME280;61032;50.782;6.818;2023-08-06T01:58:00;99333.25;;;15.94;79.58
72892;BME280;61032;50.782;6.818;2023-08-06T01:59:02;99330.84;;;15.92;79.73
72892;BME280;61032;50.782;6.818;2023-08-06T02:00:02;99335.22;;;15.90;79.43
72892;BME280;61032;50.782;6.818;2023-08-06T02:01:03;99331.66;;;15.93;79.50
72892;BME280;61032;50.782;6.818;2023-08-06T02:02:04;99330.47;;;15.94;79.65
72892;BME280;61032;50.782;6.818;2023-08-06T02:03:04;99328.09;;;15.96;79.51
72892;BME280;61032;50.782;6.818;2023-08-06T02:04:04;99333.25;;;15.94;79.73
72892;BME280;61032;50.782;6.818;2023-08-06T02:05:05;99331.66;;;15.93;79.72
72892;BME280;61032;50.782;6.818;2023-08-06T02:06:06;99326.09;;;15.93;79.63
72892;BME280;61032;50.782;6.818;2023-08-06T02:07:06;99331.66;;;15.93;79.54
72892;BME280;61032;50.782;6.818;2023-08-06T02:08:06;99332.03;;;15.91;79.79
72892;BME280;61032;50.782;6.818;2023-08-06T02:09:07;99323.34;;;15.93;79.63
72892;BME280;61032;50.782;6.818;2023-08-06T02:10:07;99328.88;;;15.96;79.60
72892;BME280;61032;50.782;6.818;2023-08-06T02:11:08;99323.75;;;15.98;79.65
72892;BME280;61032;50.782;6.818;2023-08-06T02:12:08;99325.31;;;15.96;79.46
72892;BME280;61032;50.782;6.818;2023-08-06T02:13:08;99322.16;;;15.94;79.52
72892;BME280;61032;50.782;6.818;2023-08-06T02:14:09;99317.41;;;15.98;79.63
72892;BME280;61032;50.782;6.818;2023-08-06T02:15:09;99324.13;;;15.97;79.40
72892;BME280;61032;50.782;6.818;2023-08-06T02:16:09;99325.31;;;15.96;79.48
72892;BME280;61032;50.782;6.818;2023-08-06T02:17:10;99317.00;;;15.96;79.79
72892;BME280;61032;50.782;6.818;2023-08-06T02:18:10;99318.59;;;15.97;79.75
72892;BME280;61032;50.782;6.818;2023-08-06T02:19:10;99327.69;;;15.97;79.78
72892;BME280;61032;50.782;6.818;2023-08-06T02:20:11;99322.94;;;15.98;79.83
72892;BME280;61032;50.782;6.818;2023-08-06T02:21:11;99317.00;;;15.99;79.85
72892;BME280;61032;50.782;6.818;2023-08-06T02:22:11;99311.84;;;16.01;79.73
72892;BME280;61032;50.782;6.818;2023-08-06T02:23:12;99319.75;;;16.03;79.79
72892;BME280;61032;50.782;6.818;2023-08-06T02:24:12;99319.75;;;16.03;79.74
72892;BME280;61032;50.782;6.818;2023-08-06T02:25:12;99322.13;;;16.04;79.58
72892;BME280;61032;50.782;6.818;2023-08-06T02:26:13;99319.75;;;16.06;79.60
72892;BME280;61032;50.782;6.818;2023-08-06T02:27:13;99318.19;;;16.05;79.92
72892;BME280;61032;50.782;6.818;2023-08-06T02:28:13;99325.31;;;16.10;79.66
72892;BME280;61032;50.782;6.818;2023-08-06T02:29:14;99318.19;;;16.12;79.44
72892;BME280;61032;50.782;6.818;2023-08-06T02:30:14;99317.78;;;16.14;79.41
72892;BME280;61032;50.782;6.818;2023-08-06T02:31:14;99310.66;;;16.17;79.70
72892;BME280;61032;50.782;6.818;2023-08-06T02:32:15;99311.47;;;16.17;79.90
72892;BME280;61032;50.782;6.818;2023-08-06T02:33:15;99312.25;;;16.18;79.74
72892;BME280;61032;50.782;6.818;2023-08-06T02:34:15;99318.19;;;16.16;80.02
72892;BME280;61032;50.782;6.818;2023-08-06T02:35:16;99314.63;;;16.15;80.43
72892;BME280;61032;50.782;6.818;2023-08-06T02:36:16;99307.09;;;16.16;80.43
72892;BME280;61032;50.782;6.818;2023-08-06T02:37:16;99309.47;;;16.14;80.49
72892;BME280;61032;50.782;6.818;2023-08-06T02:38:17;99301.94;;;16.14;80.20
72892;BME280;61032;50.782;6.818;2023-08-06T02:39:17;99303.94;;;16.10;80.36
72892;BME280;61032;50.782;6.818;2023-08-06T02:40:17;99296.78;;;16.13;80.61
72892;BME280;61032;50.782;6.818;2023-08-06T02:41:18;99301.94;;;16.14;80.33
72892;BME280;61032;50.782;6.818;2023-08-06T02:42:18;99300.38;;;16.17;80.13
72892;BME280;61032;50.782;6.818;2023-08-06T02:43:18;99307.50;;;16.18;80.03
72892;BME280;61032;50.782;6.818;2023-08-06T02:44:19;99302.34;;;16.13;79.70
72892;BME280;61032;50.782;6.818;2023-08-06T02:45:19;99297.59;;;16.13;79.90
72892;BME280;61032;50.782;6.818;2023-08-06T02:46:19;99309.06;;;16.12;80.52
72892;BME280;61032;50.782;6.818;2023-08-06T02:47:20;99297.19;;;16.11;80.89
72892;BME280;61032;50.782;6.818;2023-08-06T02:48:20;99308.69;;;16.10;81.00
72892;BME280;61032;50.782;6.818;2023-08-06T02:49:20;99299.16;;;16.07;81.52
72892;BME280;61032;50.782;6.818;2023-08-06T02:50:21;99296.00;;;16.09;81.69
72892;BME280;61032;50.782;6.818;2023-08-06T02:51:21;99297.19;;;16.11;82.00
72892;BME280;61032;50.782;6.818;2023-08-06T02:52:21;99299.16;;;16.11;81.80
72892;BME280;61032;50.782;6.818;2023-08-06T02:53:22;99294.41;;;16.08;82.24
72892;BME280;61032;50.782;6.818;2023-08-06T02:54:22;99296.78;;;16.09;82.84
72892;BME280;61032;50.782;6.818;2023-08-06T02:55:22;99294.03;;;16.09;82.67
72892;BME280;61032;50.782;6.818;2023-08-06T02:56:23;99293.63;;;16.11;82.86
72892;BME280;61032;50.782;6.818;2023-08-06T02:57:23;99292.44;;;16.12;82.91
72892;BME280;61032;50.782;6.818;2023-08-06T02:58:23;99290.06;;;16.10;83.10
72892;BME280;61032;50.782;6.818;2023-08-06T02:59:24;99286.50;;;16.10;83.07
72892;BME280;61032;50.782;6.818;2023-08-06T03:00:24;99285.72;;;16.13;83.30
72892;BME280;61032;50.782;6.818;2023-08-06T03:01:24;99285.31;;;16.14;83.30
72892;BME280;61032;50.782;6.818;2023-08-06T03:02:26;99288.88;;;16.15;83.58
72892;BME280;61032;50.782;6.818;2023-08-06T03:03:27;99280.94;;;16.10;83.13
72892;BME280;61032;50.782;6.818;2023-08-06T03:04:27;99288.09;;;16.11;83.57
72892;BME280;61032;50.782;6.818;2023-08-06T03:05:27;99288.88;;;16.15;83.67
72892;BME280;61032;50.782;6.818;2023-08-06T03:06:28;99278.97;;;16.14;83.40
72892;BME280;61032;50.782;6.818;2023-08-06T03:07:28;99275.41;;;16.13;83.27
72892;BME280;61032;50.782;6.818;2023-08-06T03:08:29;99282.13;;;16.09;83.35
72892;BME280;61032;50.782;6.818;2023-08-06T03:09:29;99279.38;;;16.05;83.35
72892;BME280;61032;50.782;6.818;2023-08-06T03:10:29;99280.56;;;16.04;84.00
72892;BME280;61032;50.782;6.818;2023-08-06T03:11:29;99276.59;;;16.02;83.85
72892;BME280;61032;50.782;6.818;2023-08-06T03:12:30;99275.00;;;16.04;84.01
72892;BME280;61032;50.782;6.818;2023-08-06T03:13:30;99274.22;;;16.00;83.44
72892;BME280;61032;50.782;6.818;2023-08-06T03:14:30;99272.63;;;16.03;84.07
72892;BME280;61032;50.782;6.818;2023-08-06T03:15:31;99265.09;;;16.03;83.90
72892;BME280;61032;50.782;6.818;2023-08-06T03:16:31;99269.06;;;16.06;84.21
72892;BME280;61032;50.782;6.818;2023-08-06T03:17:31;99265.50;;;16.05;84.28
72892;BME280;61032;50.782;6.818;2023-08-06T03:18:32;99267.88;;;16.07;84.22
72892;BME280;61032;50.782;6.818;2023-08-06T03:19:32;99268.28;;;16.05;84.50
72892;BME280;61032;50.782;6.818;2023-08-06T03:20:32;99264.72;;;16.05;84.24
72892;BME280;61032;50.782;6.818;2023-08-06T03:21:33;99263.50;;;16.02;84.42
72892;BME280;61032;50.782;6.818;2023-08-06T03:22:33;99268.66;;;16.04;84.26
72892;BME280;61032;50.782;6.818;2023-08-06T03:23:33;99265.50;;;16.02;84.44
72892;BME280;61032;50.782;6.818;2023-08-06T03:24:34;99257.22;;;15.98;84.70
72892;BME280;61032;50.782;6.818;2023-08-06T03:25:35;99262.75;;;15.98;84.76
72892;BME280;61032;50.782;6.818;2023-08-06T03:26:36;99261.56;;;15.99;85.01
72892;BME280;61032;50.782;6.818;2023-08-06T03:27:37;99253.22;;;16.03;84.84
72892;BME280;61032;50.782;6.818;2023-08-06T03:28:37;99265.13;;;16.00;84.58
72892;BME280;61032;50.782;6.818;2023-08-06T03:29:37;99252.44;;;16.02;84.87
72892;BME280;61032;50.782;6.818;2023-08-06T03:30:38;99259.56;;;16.03;84.89
72892;BME280;61032;50.782;6.818;2023-08-06T03:31:38;99256.38;;;16.05;84.63
72892;BME280;61032;50.782;6.818;2023-08-06T03:32:38;99264.34;;;15.99;83.93
72892;BME280;61032;50.782;6.818;2023-08-06T03:33:39;99259.56;;;16.03;83.95
72892;BME280;61032;50.782;6.818;2023-08-06T03:34:39;99256.38;;;16.05;83.82
72892;BME280;61032;50.782;6.818;2023-08-06T03:35:39;99254.00;;;16.03;84.21
72892;BME280;61032;50.782;6.818;2023-08-06T03:36:40;99263.50;;;16.02;84.20
72892;BME280;61032;50.782;6.818;2023-08-06T03:37:41;99259.94;;;16.02;83.80
72892;BME280;61032;50.782;6.818;2023-08-06T03:38:41;99261.16;;;16.04;83.91
72892;BME280;61032;50.782;6.818;2023-08-06T03:39:41;99255.59;;;16.04;83.75
72892;BME280;61032;50.782;6.818;2023-08-06T03:40:42;99260.75;;;16.06;83.94
72892;BME280;61032;50.782;6.818;2023-08-06T03:41:43;99267.88;;;16.07;83.86
72892;BME280;61032;50.782;6.818;2023-08-06T03:42:43;99265.09;;;16.03;83.56
72892;BME280;61032;50.782;6.818;2023-08-06T03:43:44;99264.72;;;16.05;83.75
72892;BME280;61032;50.782;6.818;2023-08-06T03:44:44;99257.97;;;16.02;83.45
72892;BME280;61032;50.782;6.818;2023-08-06T03:45:44;99259.19;;;15.94;83.93
72892;BME280;61032;50.782;6.818;2023-08-06T03:46:45;99260.38;;;15.90;83.85
72892;BME280;61032;50.782;6.818;2023-08-06T03:47:45;99254.81;;;15.90;84.00
72892;BME280;61032;50.782;6.818;2023-08-06T03:48:45;99267.09;;;15.92;84.37
72892;BME280;61032;50.782;6.818;2023-08-06T03:49:45;99262.75;;;15.95;84.26
72892;BME280;61032;50.782;6.818;2023-08-06T03:50:46;99256.41;;;15.98;84.42
72892;BME280;61032;50.782;6.818;2023-08-06T03:51:46;99256.41;;;15.98;84.26
72892;BME280;61032;50.782;6.818;2023-08-06T03:52:46;99248.88;;;15.95;84.51
72892;BME280;61032;50.782;6.818;2023-08-06T03:53:47;99249.28;;;15.90;84.12
72892;BME280;61032;50.782;6.818;2023-08-06T03:54:47;99256.41;;;15.91;84.12
72892;BME280;61032;50.782;6.818;2023-08-06T03:55:47;99256.81;;;15.89;84.43
72892;BME280;61032;50.782;6.818;2023-08-06T03:56:48;99248.09;;;15.87;84.63
72892;BME280;61032;50.782;6.818;2023-08-06T03:57:48;99258.78;;;15.89;84.86
72892;BME280;61032;50.782;6.818;2023-08-06T03:58:48;99246.91;;;15.88;85.11
72892;BME280;61032;50.782;6.818;2023-08-06T03:59:49;99250.47;;;15.89;85.24
72892;BME280;61032;50.782;6.818;2023-08-06T04:00:58;99250.47;;;15.92;84.53
72892;BME280;61032;50.782;6.818;2023-08-06T04:01:58;99253.25;;;15.92;84.63
72892;BME280;61032;50.782;6.818;2023-08-06T04:02:58;99255.63;;;15.94;84.57
72892;BME280;61032;50.782;6.818;2023-08-06T04:03:59;99254.81;;;15.97;84.30
72892;BME280;61032;50.782;6.818;2023-08-06T04:05:00;99249.28;;;15.97;84.16
72892;BME280;61032;50.782;6.818;2023-08-06T04:06:04;99247.31;;;15.94;84.31
72892;BME280;61032;50.782;6.818;2023-08-06T04:07:04;99246.91;;;15.92;84.19
72892;BME280;61032;50.782;6.818;2023-08-06T04:08:05;99241.34;;;15.88;84.35
72892;BME280;61032;50.782;6.818;2023-08-06T04:09:05;99250.47;;;15.89;84.76
72892;BME280;61032;50.782;6.818;2023-08-06T04:10:05;99242.94;;;15.93;84.50
72892;BME280;61032;50.782;6.818;2023-08-06T04:11:06;99247.31;;;15.94;84.45
72892;BME280;61032;50.782;6.818;2023-08-06T04:12:06;99246.50;;;15.93;84.40
72892;BME280;61032;50.782;6.818;2023-08-06T04:13:06;99244.13;;;15.92;84.61
72892;BME280;61032;50.782;6.818;2023-08-06T04:14:07;99247.69;;;15.92;84.60
72892;BME280;61032;50.782;6.818;2023-08-06T04:15:07;99243.75;;;15.93;84.28
72892;BME280;61032;50.782;6.818;2023-08-06T04:16:08;99246.13;;;15.95;84.35
72892;BME280;61032;50.782;6.818;2023-08-06T04:17:08;99252.06;;;15.93;84.93
72892;BME280;61032;50.782;6.818;2023-08-06T04:18:08;99252.84;;;15.94;84.98
72892;BME280;61032;50.782;6.818;2023-08-06T04:19:09;99248.50;;;15.93;84.94
72892;BME280;61032;50.782;6.818;2023-08-06T04:20:09;99242.94;;;15.93;84.80
72892;BME280;61032;50.782;6.818;2023-08-06T04:21:09;99249.28;;;15.90;84.29
72892;BME280;61032;50.782;6.818;2023-08-06T04:22:10;99252.03;;;15.86;85.24
72892;BME280;61032;50.782;6.818;2023-08-06T04:23:10;99240.97;;;15.86;85.57
72892;BME280;61032;50.782;6.818;2023-08-06T04:24:10;99248.50;;;15.89;85.29
72892;BME280;61032;50.782;6.818;2023-08-06T04:25:11;99248.88;;;15.91;84.88
72892;BME280;61032;50.782;6.818;2023-08-06T04:26:11;99248.50;;;15.93;85.01
72892;BME280;61032;50.782;6.818;2023-08-06T04:27:12;99244.94;;;15.96;85.44
72892;BME280;61032;50.782;6.818;2023-08-06T04:28:13;99248.50;;;16.00;85.15
72892;BME280;61032;50.782;6.818;2023-08-06T04:29:13;99242.13;;;16.03;84.96
72892;BME280;61032;50.782;6.818;2023-08-06T04:30:13;99247.69;;;15.96;84.60
72892;BME280;61032;50.782;6.818;2023-08-06T04:31:14;99252.81;;;16.01;84.50
72892;BME280;61032;50.782;6.818;2023-08-06T04:32:15;99250.88;;;15.98;84.15
72892;BME280;61032;50.782;6.818;2023-08-06T04:33:15;99255.22;;;15.92;84.04
72892;BME280;61032;50.782;6.818;2023-08-06T04:34:15;99252.44;;;15.92;85.18
72892;BME280;61032;50.782;6.818;2023-08-06T04:35:16;99250.88;;;15.91;86.10
72892;BME280;61032;50.782;6.818;2023-08-06T04:36:16;99249.28;;;15.97;86.16
72892;BME280;61032;50.782;6.818;2023-08-06T04:37:16;99243.72;;;16.00;85.55
72892;BME280;61032;50.782;6.818;2023-08-06T04:38:17;99250.44;;;16.03;85.48
72892;BME280;61032;50.782;6.818;2023-08-06T04:39:17;99250.06;;;16.01;85.30
72892;BME280;61032;50.782;6.818;2023-08-06T04:40:17;99259.59;;;16.00;85.02
72892;BME280;61032;50.782;6.818;2023-08-06T04:41:18;99252.81;;;16.01;85.16
72892;BME280;61032;50.782;6.818;2023-08-06T04:42:18;99252.81;;;16.04;85.04
72892;BME280;61032;50.782;6.818;2023-08-06T04:43:19;99248.47;;;16.03;85.16
72892;BME280;61032;50.782;6.818;2023-08-06T04:44:20;99244.50;;;16.01;85.13
72892;BME280;61032;50.782;6.818;2023-08-06T04:45:21;99255.22;;;15.95;85.15
72892;BME280;61032;50.782;6.818;2023-08-06T04:46:24;99250.06;;;15.97;85.79
72892;BME280;61032;50.782;6.818;2023-08-06T04:47:24;99252.03;;;16.00;86.22
72892;BME280;61032;50.782;6.818;2023-08-06T04:48:26;99251.66;;;15.98;86.58
72892;BME280;61032;50.782;6.818;2023-08-06T04:49:26;99251.28;;;16.00;86.31
72892;BME280;61032;50.782;6.818;2023-08-06T04:50:26;99255.22;;;15.99;86.53
72892;BME280;61032;50.782;6.818;2023-08-06T04:51:26;99249.28;;;15.97;86.19
72892;BME280;61032;50.782;6.818;2023-08-06T04:52:27;99256.41;;;15.91;86.69
72892;BME280;61032;50.782;6.818;2023-08-06T04:53:28;99258.00;;;15.95;86.86
72892;BME280;61032;50.782;6.818;2023-08-06T04:54:28;99250.88;;;15.94;86.67
72892;BME280;61032;50.782;6.818;2023-08-06T04:55:29;99255.63;;;15.97;87.10
72892;BME280;61032;50.782;6.818;2023-08-06T04:56:29;99257.56;;;16.00;87.07
72892;BME280;61032;50.782;6.818;2023-08-06T04:57:29;99256.38;;;16.01;86.97
72892;BME280;61032;50.782;6.818;2023-08-06T04:58:29;99258.00;;;15.99;87.43
72892;BME280;61032;50.782;6.818;2023-08-06T04:59:30;99257.97;;;16.02;86.92
72892;BME280;61032;50.782;6.818;2023-08-06T05:00:30;99257.97;;;16.06;87.27
72892;BME280;61032;50.782;6.818;2023-08-06T05:01:31;99261.94;;;16.05;87.33
72892;BME280;61032;50.782;6.818;2023-08-06T05:02:31;99263.91;;;16.08;87.30
72892;BME280;61032;50.782;6.818;2023-08-06T05:03:33;99258.38;;;16.08;86.70
72892;BME280;61032;50.782;6.818;2023-08-06T05:04:33;99260.34;;;16.11;86.96
72892;BME280;61032;50.782;6.818;2023-08-06T05:05:34;99263.53;;;16.13;87.44
72892;BME280;61032;50.782;6.818;2023-08-06T05:06:34;99253.22;;;16.13;87.32
72892;BME280;61032;50.782;6.818;2023-08-06T05:07:34;99263.13;;;16.14;87.19
72892;BME280;61032;50.782;6.818;2023-08-06T05:08:35;99256.78;;;16.14;87.20
72892;BME280;61032;50.782;6.818;2023-08-06T05:09:35;99265.09;;;16.14;86.88
72892;BME280;61032;50.782;6.818;2023-08-06T05:10:35;99266.69;;;16.15;87.11
72892;BME280;61032;50.782;6.818;2023-08-06T05:11:36;99262.72;;;16.16;86.63
72892;BME280;61032;50.782;6.818;2023-08-06T05:12:36;99261.53;;;16.17;86.63
72892;BME280;61032;50.782;6.818;2023-08-06T05:13:36;99269.06;;;16.17;86.87
72892;BME280;61032;50.782;6.818;2023-08-06T05:14:36;99263.53;;;16.20;86.77
72892;BME280;61032;50.782;6.818;2023-08-06T05:15:37;99261.16;;;16.19;86.76
72892;BME280;61032;50.782;6.818;2023-08-06T05:16:37;99263.53;;;16.13;87.28
72892;BME280;61032;50.782;6.818;2023-08-06T05:17:38;99265.09;;;16.07;86.90
72892;BME280;61032;50.782;6.818;2023-08-06T05:18:38;99269.88;;;15.99;87.39
72892;BME280;61032;50.782;6.818;2023-08-06T05:19:39;99271.44;;;16.00;87.89
72892;BME280;61032;50.782;6.818;2023-08-06T05:20:41;99273.03;;;16.01;88.12
72892;BME280;61032;50.782;6.818;2023-08-06T05:21:41;99266.72;;;15.97;87.86
72892;BME280;61032;50.782;6.818;2023-08-06T05:22:42;99267.09;;;15.96;87.71
72892;BME280;61032;50.782;6.818;2023-08-06T05:23:42;99266.31;;;15.92;88.10
72892;BME280;61032;50.782;6.818;2023-08-06T05:24:42;99270.66;;;15.93;88.67
72892;BME280;61032;50.782;6.818;2023-08-06T05:25:43;99276.22;;;15.96;88.70